createdAt,value
2022-08-26T00:01:56.663Z,7.47
2022-08-26T00:04:26.916Z,8.43
2022-08-26T00:06:56.133Z,7.70
2022-08-26T00:09:24.954Z,8.67
2022-08-26T00:11:53.439Z,8.67
2022-08-26T00:14:21.594Z,9.20
2022-08-26T00:16:49.609Z,8.13
2022-08-26T00:19:18.905Z,9.00
2022-08-26T00:21:50.670Z,8.73
2022-08-26T00:24:20.851Z,8.47
2022-08-26T00:26:48.971Z,8.47
2022-08-26T00:29:17.684Z,8.10
2022-08-26T00:31:46.010Z,7.70
2022-08-26T00:34:15.342Z,8.40
2022-08-26T00:36:44.322Z,8.48
2022-08-26T00:39:14.144Z,8.40
2022-08-26T00:41:42.603Z,8.15
2022-08-26T00:44:12.151Z,7.93
2022-08-26T00:46:46.470Z,8.53
2022-08-26T00:49:19.239Z,8.30
2022-08-26T00:51:52.051Z,8.03
2022-08-26T00:54:24.114Z,8.50
2022-08-26T00:56:59.843Z,8.73
2022-08-26T00:59:32.693Z,9.53
2022-08-26T01:02:02.780Z,8.03
2022-08-26T01:04:32.652Z,9.00
2022-08-26T01:07:01.159Z,8.47
2022-08-26T01:09:31.134Z,9.00
2022-08-26T01:12:02.260Z,8.10
2022-08-26T01:14:33.613Z,8.13
2022-08-26T01:17:05.188Z,8.43
2022-08-26T01:19:39.256Z,7.57
2022-08-26T01:22:12.065Z,7.47
2022-08-26T01:24:42.704Z,8.43
2022-08-26T01:27:13.705Z,7.97
2022-08-26T01:29:45.948Z,7.43
2022-08-26T01:32:18.795Z,7.83
2022-08-26T01:34:48.405Z,7.37
2022-08-26T01:37:21.199Z,8.03
2022-08-26T01:39:52.916Z,7.57
2022-08-26T01:42:23.084Z,7.50
2022-08-26T01:44:55.188Z,7.80
2022-08-26T01:47:28.203Z,7.30
2022-08-26T01:50:01.351Z,6.77
2022-08-26T01:52:34.683Z,7.00
2022-08-26T01:55:05.215Z,7.27
2022-08-26T01:57:37.205Z,6.97
2022-08-26T02:00:11.212Z,6.67
2022-08-26T02:02:39.156Z,6.63
2022-08-26T02:05:11.608Z,7.13
2022-08-26T02:07:40.648Z,6.60
2022-08-26T02:10:10.840Z,7.33
2022-08-26T02:12:40.288Z,6.50
2022-08-26T02:15:12.191Z,6.93
2022-08-26T02:17:44.736Z,7.10
2022-08-26T02:20:14.987Z,7.27
2022-08-26T02:22:45.181Z,6.67
2022-08-26T02:25:19.337Z,6.87
2022-08-26T02:27:48.912Z,7.20
2022-08-26T02:30:19.293Z,7.30
2022-08-26T02:32:49.483Z,6.67
2022-08-26T02:35:20.207Z,6.73
2022-08-26T02:37:49.543Z,6.90
2022-08-26T02:40:22.928Z,6.93
2022-08-26T02:42:53.062Z,7.77
2022-08-26T02:45:24.140Z,6.37
2022-08-26T02:47:52.720Z,6.73
2022-08-26T02:50:22.244Z,7.03
2022-08-26T02:52:50.173Z,6.90
2022-08-26T02:55:19.648Z,7.63
2022-08-26T02:57:47.584Z,6.60
2022-08-26T03:00:17.752Z,6.20
2022-08-26T03:02:46.229Z,6.53
2022-08-26T03:05:15.507Z,6.43
2022-08-26T03:07:43.836Z,6.37
2022-08-26T03:10:13.652Z,6.63
2022-08-26T03:12:47.433Z,7.07
2022-08-26T03:15:18.649Z,6.53
2022-08-26T03:17:49.160Z,7.20
2022-08-26T03:20:19.296Z,6.40
2022-08-26T03:22:47.382Z,6.37
2022-08-26T03:25:17.801Z,6.67
2022-08-26T03:27:47.676Z,6.50
2022-08-26T03:30:34.479Z,6.20
2022-08-26T03:33:03.325Z,5.83
2022-08-26T03:35:32.789Z,6.67
2022-08-26T03:38:01.323Z,6.07
2022-08-26T03:40:30.203Z,5.10
2022-08-26T03:42:59.659Z,5.33
2022-08-26T03:45:27.680Z,5.80
2022-08-26T03:47:55.859Z,6.17
2022-08-26T03:50:27.196Z,6.30
2022-08-26T03:52:56.373Z,6.07
2022-08-26T03:55:26.706Z,6.33
2022-08-26T03:57:55.898Z,7.03
2022-08-26T04:00:25.729Z,5.57
2022-08-26T04:02:54.199Z,5.80
2022-08-26T04:05:23.601Z,6.50
2022-08-26T04:07:52.274Z,6.30
2022-08-26T04:10:28.595Z,6.37
2022-08-26T04:12:56.788Z,6.40
2022-08-26T04:15:28.668Z,6.27
2022-08-26T04:17:57.526Z,6.18
2022-08-26T04:20:25.925Z,7.57
2022-08-26T04:22:53.947Z,6.47
2022-08-26T04:25:22.561Z,6.60
2022-08-26T04:27:52.142Z,6.78
2022-08-26T04:30:21.237Z,6.88
2022-08-26T04:32:50.924Z,6.57
2022-08-26T04:35:21.815Z,7.18
2022-08-26T04:37:53.917Z,6.90
2022-08-26T04:40:21.866Z,6.90
2022-08-26T04:42:50.272Z,6.72
2022-08-26T04:45:19.018Z,6.70
2022-08-26T04:47:56.370Z,7.70
2022-08-26T04:50:26.648Z,7.13
2022-08-26T04:52:55.096Z,8.70
2022-08-26T04:55:29.036Z,6.47
2022-08-26T04:58:08.764Z,6.85
2022-08-26T05:00:38.745Z,7.88
2022-08-26T05:03:10.374Z,7.15
2022-08-26T05:05:40.977Z,6.68
2022-08-26T05:08:09.994Z,7.30
2022-08-26T05:10:42.458Z,6.55
2022-08-26T05:13:14.235Z,7.07
2022-08-26T05:15:44.164Z,7.07
2022-08-26T05:18:14.933Z,7.50
2022-08-26T05:20:46.532Z,8.63
2022-08-26T05:23:15.972Z,7.03
2022-08-26T05:25:47.046Z,7.32
2022-08-26T05:28:17.491Z,7.28
2022-08-26T05:30:45.871Z,7.88
2022-08-26T05:33:16.369Z,7.25
2022-08-26T05:35:46.030Z,7.95
2022-08-26T05:38:16.602Z,7.10
2022-08-26T05:40:46.720Z,7.45
2022-08-26T05:43:15.197Z,7.72
2022-08-26T05:45:46.146Z,7.90
2022-08-26T05:48:16.683Z,8.57
2022-08-26T05:50:47.187Z,7.70
2022-08-26T05:53:17.437Z,7.72
2022-08-26T05:55:49.267Z,7.60
2022-08-26T05:58:20.193Z,7.15
2022-08-26T06:00:57.055Z,7.68
2022-08-26T06:03:26.337Z,8.30
2022-08-26T06:05:54.455Z,7.75
2022-08-26T06:08:22.468Z,7.25
2022-08-26T06:10:52.580Z,8.73
2022-08-26T06:13:21.831Z,7.47
2022-08-26T06:15:52.202Z,8.07
2022-08-26T06:18:22.882Z,8.52
2022-08-26T06:20:57.205Z,7.05
2022-08-26T06:23:45.486Z,7.60
2022-08-26T06:26:16.181Z,7.78
2022-08-26T06:28:45.466Z,7.60
2022-08-26T06:31:14.347Z,7.38
2022-08-26T06:33:42.436Z,8.05
2022-08-26T06:36:16.945Z,8.43
2022-08-26T06:38:47.311Z,9.38
2022-08-26T06:41:15.779Z,7.68
2022-08-26T06:43:43.787Z,10.15
2022-08-26T06:46:14.428Z,8.27
2022-08-26T06:48:42.363Z,7.70
2022-08-26T06:51:15.001Z,7.75
2022-08-26T06:53:45.654Z,7.68
2022-08-26T06:56:16.105Z,8.63
2022-08-26T06:58:44.908Z,10.05
2022-08-26T07:01:18.440Z,7.78
2022-08-26T07:03:49.040Z,7.90
2022-08-26T07:06:19.652Z,8.63
2022-08-26T07:08:47.630Z,8.90
2022-08-26T07:11:15.743Z,8.68
2022-08-26T07:13:44.848Z,8.27
2022-08-26T07:16:17.520Z,8.07
2022-08-26T07:18:48.375Z,8.75
2022-08-26T07:21:19.132Z,8.45
2022-08-26T07:23:47.287Z,7.82
2022-08-26T07:26:20.844Z,7.70
2022-08-26T07:28:50.636Z,7.38
2022-08-26T07:31:23.001Z,8.30
2022-08-26T07:33:51.595Z,8.52
2022-08-26T07:36:23.117Z,8.68
2022-08-26T07:38:51.577Z,8.00
2022-08-26T07:41:26.336Z,7.85
2022-08-26T07:43:55.628Z,7.72
2022-08-26T07:46:27.508Z,7.82
2022-08-26T07:48:59.174Z,7.63
2022-08-26T07:51:29.074Z,9.23
2022-08-26T07:53:57.151Z,7.93
2022-08-26T07:56:26.239Z,7.88
2022-08-26T07:58:54.693Z,7.93
2022-08-26T08:01:23.633Z,7.60
2022-08-26T08:03:52.272Z,8.10
2022-08-26T08:06:20.780Z,7.25
2022-08-26T08:08:51.664Z,7.70
2022-08-26T08:11:21.669Z,7.85
2022-08-26T08:13:56.531Z,8.95
2022-08-26T08:16:26.100Z,8.13
2022-08-26T08:18:54.526Z,8.20
2022-08-26T08:21:24.473Z,7.78
2022-08-26T08:23:55.752Z,7.78
2022-08-26T08:26:25.292Z,7.75
2022-08-26T08:28:59.043Z,7.30
2022-08-26T08:34:18.149Z,7.75
2022-08-26T08:36:46.818Z,7.15
2022-08-26T08:39:16.097Z,7.68
2022-08-26T08:42:00.536Z,7.57
2022-08-26T08:44:30.941Z,7.57
2022-08-26T08:47:04.925Z,7.03
2022-08-26T08:49:34.704Z,7.68
2022-08-26T08:52:08.024Z,6.78
2022-08-26T08:54:37.383Z,6.50
2022-08-26T08:57:12.086Z,6.53
2022-08-26T08:59:52.079Z,6.65
2022-08-26T09:02:29.070Z,6.38
2022-08-26T09:05:09.144Z,7.32
2022-08-26T09:07:47.282Z,5.45
2022-08-26T09:10:35.172Z,5.68
2022-08-26T09:13:06.217Z,5.82
2022-08-26T09:15:43.765Z,6.13
2022-08-26T09:18:24.938Z,5.60
2022-08-26T09:20:57.812Z,5.10
2022-08-26T09:23:26.174Z,5.10
2022-08-26T09:25:59.234Z,5.50
2022-08-26T09:28:29.867Z,5.07
2022-08-26T09:31:11.690Z,5.63
2022-08-26T09:33:41.209Z,5.97
2022-08-26T09:36:24.756Z,6.32
2022-08-26T09:38:54.336Z,6.18
2022-08-26T09:41:28.186Z,7.20
2022-08-26T09:44:18.262Z,11.27
2022-08-26T09:46:55.573Z,6.70
2022-08-26T09:49:35.868Z,6.20
2022-08-26T09:52:18.697Z,6.90
2022-08-26T09:54:59.501Z,7.15
2022-08-26T09:57:31.411Z,6.40
2022-08-26T10:00:01.300Z,6.38
2022-08-26T10:02:41.623Z,5.60
2022-08-26T10:05:19.221Z,6.53
2022-08-26T10:07:49.948Z,6.32
2022-08-26T10:10:22.572Z,7.13
2022-08-26T10:13:04.299Z,6.38
2022-08-26T10:15:48.646Z,6.10
2022-08-26T10:18:25.145Z,6.70
2022-08-26T10:20:59.953Z,10.63
2022-08-26T10:23:32.336Z,7.47
2022-08-26T10:26:05.754Z,7.22
2022-08-26T10:28:41.670Z,7.72
2022-08-26T10:31:23.312Z,7.53
2022-08-26T10:34:00.329Z,7.85
2022-08-26T10:39:48.124Z,7.80
2022-08-26T10:42:25.459Z,7.18
2022-08-26T10:45:02.849Z,8.32
2022-08-26T10:47:38.297Z,8.00
2022-08-26T10:50:07.320Z,8.55
2022-08-26T10:52:53.715Z,7.78
2022-08-26T10:55:34.699Z,7.82
2022-08-26T10:58:26.124Z,8.10
2022-08-26T11:01:22.829Z,9.05
2022-08-26T11:04:00.357Z,10.43
2022-08-26T11:06:31.397Z,8.23
2022-08-26T11:09:01.161Z,8.60
2022-08-26T11:12:01.128Z,8.65
2022-08-26T11:14:42.078Z,8.43
2022-08-26T11:17:57.592Z,8.38
2022-08-26T11:20:39.337Z,9.30
2022-08-26T11:23:38.923Z,9.52
2022-08-26T11:26:32.759Z,9.57
2022-08-26T11:29:13.156Z,8.80
2022-08-26T11:31:57.174Z,10.18
2022-08-26T11:34:56.653Z,9.80
2022-08-26T11:37:33.217Z,8.70
2022-08-26T11:40:04.281Z,9.73
2022-08-26T11:42:41.029Z,7.65
2022-08-26T11:45:20.441Z,8.05
2022-08-26T11:47:49.450Z,7.40
2022-08-26T11:50:23.427Z,7.95
2022-08-26T11:52:56.533Z,8.55
2022-08-26T11:55:25.249Z,6.68
2022-08-26T11:57:56.027Z,6.55
2022-08-26T12:00:27.439Z,6.30
2022-08-26T12:03:06.537Z,7.28
2022-08-26T12:05:44.986Z,5.97
2022-08-26T12:08:17.792Z,6.68
2022-08-26T12:10:46.221Z,6.45
2022-08-26T12:13:23.129Z,6.25
2022-08-26T12:15:55.789Z,6.53
2022-08-26T12:18:29.029Z,8.00
2022-08-26T12:21:01.692Z,6.60
2022-08-26T12:23:42.150Z,6.90
2022-08-26T12:26:16.512Z,6.72
2022-08-26T12:28:48.826Z,7.35
2022-08-26T12:31:24.111Z,6.18
2022-08-26T12:33:54.122Z,6.05
2022-08-26T12:36:28.638Z,6.00
2022-08-26T12:38:58.554Z,5.68
2022-08-26T12:41:48.721Z,5.40
2022-08-26T12:44:38.448Z,5.43
2022-08-26T12:47:09.481Z,5.47
2022-08-26T12:49:39.420Z,5.00
2022-08-26T12:52:29.994Z,5.32
2022-08-26T12:55:00.027Z,5.10
2022-08-26T12:57:32.139Z,5.00
2022-08-26T13:00:26.225Z,5.97
2022-08-26T13:02:56.856Z,4.82
2022-08-26T13:05:30.209Z,6.25
2022-08-26T13:08:18.451Z,5.07
2022-08-26T13:10:50.314Z,5.05
2022-08-26T13:13:18.292Z,5.07
2022-08-26T13:15:46.200Z,4.95
2022-08-26T13:18:14.119Z,5.38
2022-08-26T13:20:44.851Z,4.65
2022-08-26T13:23:15.091Z,5.80
2022-08-26T13:25:43.317Z,5.28
2022-08-26T13:28:11.311Z,4.60
2022-08-26T13:30:47.831Z,5.38
2022-08-26T13:33:18.269Z,5.57
2022-08-26T13:35:46.284Z,4.75
2022-08-26T13:38:32.890Z,4.68
2022-08-26T13:41:02.741Z,4.00
2022-08-26T13:43:31.096Z,4.30
2022-08-26T13:45:59.772Z,4.40
2022-08-26T13:48:27.767Z,3.80
2022-08-26T13:50:55.733Z,4.40
2022-08-26T13:53:25.228Z,4.03
2022-08-26T13:55:53.214Z,4.10
2022-08-26T13:58:21.234Z,4.40
2022-08-26T14:00:53.725Z,4.07
2022-08-26T14:03:21.809Z,4.47
2022-08-26T14:05:49.912Z,4.47
2022-08-26T14:08:18.377Z,4.30
2022-08-26T14:13:21.580Z,4.30
2022-08-26T14:15:50.534Z,4.75
2022-08-26T14:18:22.168Z,4.25
2022-08-26T14:20:51.931Z,5.88
2022-08-26T14:23:20.098Z,4.45
2022-08-26T14:25:49.520Z,4.90
2022-08-26T14:28:17.591Z,4.60
2022-08-26T14:30:48.796Z,6.88
2022-08-26T14:33:19.656Z,4.30
2022-08-26T14:35:48.050Z,4.70
2022-08-26T14:38:17.585Z,4.78
2022-08-26T14:40:46.129Z,4.55
2022-08-26T14:43:16.264Z,5.18
2022-08-26T14:45:45.786Z,4.40
2022-08-26T14:48:14.131Z,4.20
2022-08-26T14:50:42.120Z,5.20
2022-08-26T14:53:27.580Z,5.38
2022-08-26T14:55:55.552Z,4.68
2022-08-26T14:58:24.857Z,4.95
2022-08-26T15:00:56.823Z,5.35
2022-08-26T15:03:24.790Z,4.90
2022-08-26T15:05:53.359Z,4.60
2022-08-26T15:08:21.812Z,4.13
2022-08-26T15:10:50.241Z,4.15
2022-08-26T15:13:18.149Z,4.38
2022-08-26T15:15:47.725Z,4.47
2022-08-26T15:18:15.696Z,4.60
2022-08-26T15:20:44.460Z,4.70
2022-08-26T15:23:12.430Z,4.93
2022-08-26T15:25:40.405Z,4.15
2022-08-26T15:28:08.291Z,4.50
2022-08-26T15:30:36.506Z,4.53
2022-08-26T15:33:05.833Z,4.60
2022-08-26T15:35:43.196Z,5.07
2022-08-26T15:38:11.664Z,8.80
2022-08-26T15:40:39.864Z,5.57
2022-08-26T15:43:25.417Z,5.75
2022-08-26T15:45:56.140Z,5.78
2022-08-26T15:48:26.233Z,4.90
2022-08-26T15:50:56.360Z,5.45
2022-08-26T15:53:24.836Z,4.38
2022-08-26T15:55:55.037Z,4.38
2022-08-26T15:58:25.884Z,5.15
2022-08-26T16:00:55.983Z,5.22
2022-08-26T16:03:25.527Z,4.82
2022-08-26T16:05:53.530Z,5.30
2022-08-26T16:08:22.357Z,5.03
2022-08-26T16:10:51.352Z,5.10
2022-08-26T16:13:21.269Z,6.75
2022-08-26T16:15:49.689Z,6.07
2022-08-26T16:18:20.279Z,5.40
2022-08-26T16:21:02.838Z,4.55
2022-08-26T16:23:45.116Z,5.20
2022-08-26T16:26:16.062Z,4.82
2022-08-26T16:28:44.466Z,4.53
2022-08-26T16:31:12.881Z,5.03
2022-08-26T16:33:40.995Z,4.70
2022-08-26T16:36:11.748Z,5.32
2022-08-26T16:38:40.731Z,5.75
2022-08-26T16:41:09.606Z,5.22
2022-08-26T16:43:37.889Z,5.45
2022-08-26T16:46:07.123Z,5.80
2022-08-26T16:48:36.620Z,5.43
2022-08-26T16:51:04.619Z,8.13
2022-08-26T16:53:33.869Z,6.30
2022-08-26T16:56:01.787Z,6.35
2022-08-26T16:58:30.036Z,6.93
2022-08-26T17:00:58.253Z,6.38
2022-08-26T17:03:26.141Z,6.13
2022-08-26T17:05:54.480Z,5.50
2022-08-26T17:08:27.607Z,5.50
2022-08-26T17:11:00.388Z,5.45
2022-08-26T17:13:35.529Z,5.70
2022-08-26T17:16:05.363Z,6.55
2022-08-26T17:18:34.645Z,5.95
2022-08-26T17:21:04.324Z,5.95
2022-08-26T17:23:32.688Z,6.53
2022-08-26T17:26:02.315Z,5.30
2022-08-26T17:28:30.316Z,5.85
2022-08-26T17:31:00.104Z,6.53
2022-08-26T17:33:28.647Z,6.40
2022-08-26T17:35:57.290Z,5.93
2022-08-26T17:38:25.468Z,7.05
2022-08-26T17:40:53.753Z,6.65
2022-08-26T17:43:23.047Z,6.20
2022-08-26T17:45:51.002Z,7.22
2022-08-26T17:48:18.972Z,6.80
2022-08-26T17:50:49.424Z,7.53
2022-08-26T17:53:18.714Z,6.30
2022-08-26T17:55:47.955Z,7.35
2022-08-26T17:58:16.339Z,7.22
2022-08-26T18:00:46.237Z,6.72
2022-08-26T18:03:14.584Z,6.60
2022-08-26T18:05:43.044Z,7.10
2022-08-26T18:08:11.207Z,6.53
2022-08-26T18:10:39.159Z,5.60
2022-08-26T18:13:07.078Z,5.25
2022-08-26T18:15:35.193Z,4.70
2022-08-26T18:18:04.579Z,5.50
2022-08-26T18:20:32.544Z,6.65
2022-08-26T18:23:00.567Z,7.80
2022-08-26T18:25:28.576Z,7.10
2022-08-26T18:27:56.556Z,8.13
2022-08-26T18:30:24.576Z,8.00
2022-08-26T18:32:53.420Z,7.32
2022-08-26T18:35:22.787Z,8.27
2022-08-26T18:37:50.793Z,7.90
2022-08-26T18:40:19.026Z,7.47
2022-08-26T18:42:47.097Z,8.82
2022-08-26T18:45:26.067Z,9.07
2022-08-26T18:47:54.006Z,9.25
2022-08-26T18:50:24.282Z,9.50
2022-08-26T18:52:52.184Z,7.65
2022-08-26T18:55:20.429Z,8.65
2022-08-26T18:57:48.340Z,9.05
2022-08-26T19:00:17.517Z,8.73
2022-08-26T19:02:50.511Z,8.32
2022-08-26T19:05:20.225Z,8.82
2022-08-26T19:07:49.728Z,9.68
2022-08-26T19:10:18.298Z,9.40
2022-08-26T19:12:46.268Z,8.85
2022-08-26T19:15:19.988Z,9.35
2022-08-26T19:17:48.166Z,9.90
2022-08-26T19:20:16.817Z,9.85
2022-08-26T19:22:46.040Z,10.38
2022-08-26T19:25:15.615Z,9.95
2022-08-26T19:27:43.775Z,9.80
2022-08-26T19:30:12.044Z,9.95
2022-08-26T19:32:39.936Z,9.52
2022-08-26T19:35:09.138Z,8.88
2022-08-26T19:37:39.928Z,8.45
2022-08-26T19:40:08.729Z,8.43
2022-08-26T19:42:38.205Z,8.77
2022-08-26T19:45:20.213Z,9.05
2022-08-26T19:47:53.552Z,9.25
2022-08-26T19:50:22.312Z,10.38
2022-08-26T19:52:50.384Z,9.27
2022-08-26T19:55:19.922Z,10.57
2022-08-26T19:57:50.194Z,9.43
2022-08-26T20:00:21.046Z,10.25
2022-08-26T20:02:49.915Z,10.38
2022-08-26T20:05:20.403Z,10.23
2022-08-26T20:07:48.529Z,10.00
2022-08-26T20:10:18.284Z,8.50
2022-08-26T20:12:46.204Z,11.07
2022-08-26T20:15:16.792Z,11.93
2022-08-26T20:17:44.705Z,10.30
2022-08-26T20:20:33.360Z,10.32
2022-08-26T20:23:02.457Z,9.32
2022-08-26T20:25:30.640Z,7.90
2022-08-26T20:27:58.556Z,8.98
2022-08-26T20:30:28.064Z,8.77
2022-08-26T20:32:55.995Z,8.60
2022-08-26T20:35:24.051Z,9.27
2022-08-26T20:37:51.967Z,10.57
2022-08-26T20:40:21.395Z,9.77
2022-08-26T20:42:49.399Z,9.45
2022-08-26T20:45:17.400Z,8.50
2022-08-26T20:47:46.725Z,9.40
2022-08-26T20:50:14.649Z,10.48
2022-08-26T20:52:42.536Z,9.38
2022-08-26T20:55:11.006Z,8.68
2022-08-26T20:57:38.937Z,9.90
2022-08-26T21:00:08.071Z,10.25
2022-08-26T21:02:36.961Z,9.40
2022-08-26T21:05:07.515Z,8.48
2022-08-26T21:07:35.553Z,8.68
2022-08-26T21:10:04.175Z,8.55
2022-08-26T21:12:32.240Z,8.40
2022-08-26T21:15:00.560Z,7.95
2022-08-26T21:17:28.807Z,7.80
2022-08-26T21:19:56.767Z,6.68
2022-08-26T21:22:26.540Z,7.07
2022-08-26T21:24:54.404Z,7.68
2022-08-26T21:27:22.356Z,7.53
2022-08-26T21:29:54.403Z,7.97
2022-08-26T21:32:22.265Z,7.37
2022-08-26T21:34:50.138Z,7.97
2022-08-26T21:37:18.076Z,7.40
2022-08-26T21:39:47.358Z,7.33
2022-08-26T21:42:15.245Z,7.27
2022-08-26T21:44:45.117Z,7.03
2022-08-26T21:47:20.572Z,6.70
2022-08-26T21:49:48.496Z,7.10
2022-08-26T21:52:16.423Z,6.97
2022-08-26T21:54:49.326Z,9.97
2022-08-26T21:57:19.510Z,8.70
2022-08-26T21:59:47.392Z,8.47
2022-08-26T22:02:15.738Z,7.87
2022-08-26T22:04:48.563Z,7.20
2022-08-26T22:07:19.114Z,6.97
2022-08-26T22:09:47.347Z,7.57
2022-08-26T22:12:18.059Z,7.13
2022-08-26T22:14:48.167Z,6.93
2022-08-26T22:17:17.032Z,6.83
2022-08-26T22:19:46.110Z,7.00
2022-08-26T22:22:15.477Z,7.07
2022-08-26T22:24:44.301Z,6.30
2022-08-26T22:27:13.022Z,6.10
